sensor_id;sensor_type;location;lat;lon;timestamp;temperature;humidity
32640;DHT22;19049;52.524;11.468;2022-11-12T00:01:13;3.80;92.70
32640;DHT22;19049;52.524;11.468;2022-11-12T00:03:39;3.80;92.70
32640;DHT22;19049;52.524;11.468;2022-11-12T00:06:05;3.80;92.70
32640;DHT22;19049;52.524;11.468;2022-11-12T00:08:30;3.80;92.80
32640;DHT22;19049;52.524;11.468;2022-11-12T00:10:56;3.70;92.70
32640;DHT22;19049;52.524;11.468;2022-11-12T00:13:22;3.70;92.80
32640;DHT22;19049;52.524;11.468;2022-11-12T00:15:47;3.70;92.70
32640;DHT22;19049;52.524;11.468;2022-11-12T00:18:13;3.60;92.70
32640;DHT22;19049;52.524;11.468;2022-11-12T00:20:39;3.60;92.70
32640;DHT22;19049;52.524;11.468;2022-11-12T00:23:04;3.60;92.70
32640;DHT22;19049;52.524;11.468;2022-11-12T00:25:30;3.50;92.70
32640;DHT22;19049;52.524;11.468;2022-11-12T00:28:07;3.50;92.80
32640;DHT22;19049;52.524;11.468;2022-11-12T00:30:33;3.50;92.80
32640;DHT22;19049;52.524;11.468;2022-11-12T00:33:02;3.40;92.70
32640;DHT22;19049;52.524;11.468;2022-11-12T00:35:30;3.40;92.80
32640;DHT22;19049;52.524;11.468;2022-11-12T00:37:56;3.40;92.80
32640;DHT22;19049;52.524;11.468;2022-11-12T00:40:22;3.40;92.90
32640;DHT22;19049;52.524;11.468;2022-11-12T00:42:50;3.40;92.80
32640;DHT22;19049;52.524;11.468;2022-11-12T00:45:17;3.30;92.90
32640;DHT22;19049;52.524;11.468;2022-11-12T00:47:43;3.30;92.90
32640;DHT22;19049;52.524;11.468;2022-11-12T00:50:09;3.30;92.90
32640;DHT22;19049;52.524;11.468;2022-11-12T00:52:35;3.30;92.90
32640;DHT22;19049;52.524;11.468;2022-11-12T00:55:01;3.20;92.70
32640;DHT22;19049;52.524;11.468;2022-11-12T00:57:29;3.20;92.70
32640;DHT22;19049;52.524;11.468;2022-11-12T00:59:55;3.20;92.80
32640;DHT22;19049;52.524;11.468;2022-11-12T01:02:21;3.20;92.90
32640;DHT22;19049;52.524;11.468;2022-11-12T01:04:47;3.20;92.90
32640;DHT22;19049;52.524;11.468;2022-11-12T01:07:13;3.10;92.90
32640;DHT22;19049;52.524;11.468;2022-11-12T01:09:40;3.10;92.90
32640;DHT22;19049;52.524;11.468;2022-11-12T01:12:06;3.10;92.90
32640;DHT22;19049;52.524;11.468;2022-11-12T01:14:31;3.10;92.90
32640;DHT22;19049;52.524;11.468;2022-11-12T01:16:57;3.10;92.90
32640;DHT22;19049;52.524;11.468;2022-11-12T01:19:23;3.00;92.80
32640;DHT22;19049;52.524;11.468;2022-11-12T01:21:48;3.00;92.80
32640;DHT22;19049;52.524;11.468;2022-11-12T01:24:14;2.90;92.80
32640;DHT22;19049;52.524;11.468;2022-11-12T01:26:39;2.90;92.70
32640;DHT22;19049;52.524;11.468;2022-11-12T01:29:05;2.80;92.70
32640;DHT22;19049;52.524;11.468;2022-11-12T01:31:36;2.70;92.60
32640;DHT22;19049;52.524;11.468;2022-11-12T01:34:04;2.70;92.60
32640;DHT22;19049;52.524;11.468;2022-11-12T01:36:32;2.70;92.70
32640;DHT22;19049;52.524;11.468;2022-11-12T01:38:58;2.60;92.80
32640;DHT22;19049;52.524;11.468;2022-11-12T01:41:29;2.60;92.80
32640;DHT22;19049;52.524;11.468;2022-11-12T01:44:17;2.60;92.90
32640;DHT22;19049;52.524;11.468;2022-11-12T01:46:58;2.50;92.90
32640;DHT22;19049;52.524;11.468;2022-11-12T01:52:31;2.50;93.00
32640;DHT22;19049;52.524;11.468;2022-11-12T01:55:06;2.50;92.90
32640;DHT22;19049;52.524;11.468;2022-11-12T01:57:43;2.40;92.90
32640;DHT22;19049;52.524;11.468;2022-11-12T02:00:11;2.40;93.00
32640;DHT22;19049;52.524;11.468;2022-11-12T02:02:38;2.40;92.90
32640;DHT22;19049;52.524;11.468;2022-11-12T02:05:07;2.30;92.80
32640;DHT22;19049;52.524;11.468;2022-11-12T02:07:35;2.30;92.90
32640;DHT22;19049;52.524;11.468;2022-11-12T02:10:03;2.20;92.90
32640;DHT22;19049;52.524;11.468;2022-11-12T02:12:30;2.20;92.90
32640;DHT22;19049;52.524;11.468;2022-11-12T02:15:14;2.20;92.90
32640;DHT22;19049;52.524;11.468;2022-11-12T02:17:40;2.20;92.90
32640;DHT22;19049;52.524;11.468;2022-11-12T02:20:10;2.20;92.90
32640;DHT22;19049;52.524;11.468;2022-11-12T02:22:36;2.20;93.00
32640;DHT22;19049;52.524;11.468;2022-11-12T02:25:02;2.10;92.90
32640;DHT22;19049;52.524;11.468;2022-11-12T02:27:28;2.10;92.90
32640;DHT22;19049;52.524;11.468;2022-11-12T02:29:54;2.00;92.90
32640;DHT22;19049;52.524;11.468;2022-11-12T02:32:19;2.00;92.90
32640;DHT22;19049;52.524;11.468;2022-11-12T02:34:45;2.00;92.90
32640;DHT22;19049;52.524;11.468;2022-11-12T02:37:11;2.00;93.00
32640;DHT22;19049;52.524;11.468;2022-11-12T02:39:36;2.00;92.90
32640;DHT22;19049;52.524;11.468;2022-11-12T02:42:02;2.00;93.00
32640;DHT22;19049;52.524;11.468;2022-11-12T02:44:29;2.00;93.00
32640;DHT22;19049;52.524;11.468;2022-11-12T02:46:55;2.00;93.00
32640;DHT22;19049;52.524;11.468;2022-11-12T02:49:21;1.90;93.00
32640;DHT22;19049;52.524;11.468;2022-11-12T02:51:46;1.90;93.00
32640;DHT22;19049;52.524;11.468;2022-11-12T02:54:12;1.90;93.10
32640;DHT22;19049;52.524;11.468;2022-11-12T02:56:38;1.90;93.10
32640;DHT22;19049;52.524;11.468;2022-11-12T02:59:03;1.90;93.10
32640;DHT22;19049;52.524;11.468;2022-11-12T03:01:29;1.90;93.10
32640;DHT22;19049;52.524;11.468;2022-11-12T03:03:54;2.00;93.20
32640;DHT22;19049;52.524;11.468;2022-11-12T03:06:20;1.90;93.50
32640;DHT22;19049;52.524;11.468;2022-11-12T03:08:46;1.90;93.10
32640;DHT22;19049;52.524;11.468;2022-11-12T03:11:13;2.00;93.20
32640;DHT22;19049;52.524;11.468;2022-11-12T03:13:40;2.00;93.30
32640;DHT22;19049;52.524;11.468;2022-11-12T03:16:05;2.00;93.20
32640;DHT22;19049;52.524;11.468;2022-11-12T03:18:32;2.00;93.20
32640;DHT22;19049;52.524;11.468;2022-11-12T03:20:57;2.00;93.30
32640;DHT22;19049;52.524;11.468;2022-11-12T03:23:25;2.00;93.30
32640;DHT22;19049;52.524;11.468;2022-11-12T03:25:51;2.00;93.30
32640;DHT22;19049;52.524;11.468;2022-11-12T03:28:16;2.00;93.30
32640;DHT22;19049;52.524;11.468;2022-11-12T03:30:43;2.00;93.20
32640;DHT22;19049;52.524;11.468;2022-11-12T03:33:11;2.00;93.20
32640;DHT22;19049;52.524;11.468;2022-11-12T03:35:38;2.00;93.20
32640;DHT22;19049;52.524;11.468;2022-11-12T03:38:04;2.10;93.20
32640;DHT22;19049;52.524;11.468;2022-11-12T03:40:31;2.00;93.30
32640;DHT22;19049;52.524;11.468;2022-11-12T03:42:57;2.00;93.20
32640;DHT22;19049;52.524;11.468;2022-11-12T03:45:27;2.00;93.30
32640;DHT22;19049;52.524;11.468;2022-11-12T03:47:54;2.00;93.20
32640;DHT22;19049;52.524;11.468;2022-11-12T03:50:23;2.00;93.20
32640;DHT22;19049;52.524;11.468;2022-11-12T03:52:53;2.00;93.20
32640;DHT22;19049;52.524;11.468;2022-11-12T03:55:20;1.90;93.50
32640;DHT22;19049;52.524;11.468;2022-11-12T03:57:48;1.90;93.20
32640;DHT22;19049;52.524;11.468;2022-11-12T04:00:14;1.90;93.20
32640;DHT22;19049;52.524;11.468;2022-11-12T04:02:40;1.90;93.20
32640;DHT22;19049;52.524;11.468;2022-11-12T04:05:07;1.90;93.20
32640;DHT22;19049;52.524;11.468;2022-11-12T04:08:06;1.90;93.20
32640;DHT22;19049;52.524;11.468;2022-11-12T04:10:53;1.90;93.30
32640;DHT22;19049;52.524;11.468;2022-11-12T04:13:19;1.90;93.30
32640;DHT22;19049;52.524;11.468;2022-11-12T04:18:41;1.90;93.30
32640;DHT22;19049;52.524;11.468;2022-11-12T04:21:32;1.90;93.30
32640;DHT22;19049;52.524;11.468;2022-11-12T04:24:28;1.80;93.20
32640;DHT22;19049;52.524;11.468;2022-11-12T04:27:21;1.80;93.20
32640;DHT22;19049;52.524;11.468;2022-11-12T04:29:47;1.80;93.20
32640;DHT22;19049;52.524;11.468;2022-11-12T04:32:34;1.80;93.30
32640;DHT22;19049;52.524;11.468;2022-11-12T04:35:00;1.80;93.30
32640;DHT22;19049;52.524;11.468;2022-11-12T04:37:28;1.80;93.30
32640;DHT22;19049;52.524;11.468;2022-11-12T04:39:54;1.80;93.30
32640;DHT22;19049;52.524;11.468;2022-11-12T04:42:20;1.70;93.30
32640;DHT22;19049;52.524;11.468;2022-11-12T04:45:14;1.70;93.30
32640;DHT22;19049;52.524;11.468;2022-11-12T04:47:41;1.70;93.30
32640;DHT22;19049;52.524;11.468;2022-11-12T04:50:14;1.70;93.30
32640;DHT22;19049;52.524;11.468;2022-11-12T04:52:41;1.70;93.30
32640;DHT22;19049;52.524;11.468;2022-11-12T04:55:07;1.70;93.30
32640;DHT22;19049;52.524;11.468;2022-11-12T04:57:33;1.70;93.30
32640;DHT22;19049;52.524;11.468;2022-11-12T04:59:59;1.70;93.20
32640;DHT22;19049;52.524;11.468;2022-11-12T05:02:24;1.70;93.30
32640;DHT22;19049;52.524;11.468;2022-11-12T05:04:50;1.70;93.30
32640;DHT22;19049;52.524;11.468;2022-11-12T05:07:16;1.70;93.30
32640;DHT22;19049;52.524;11.468;2022-11-12T05:09:42;1.70;93.30
32640;DHT22;19049;52.524;11.468;2022-11-12T05:12:08;1.70;93.40
32640;DHT22;19049;52.524;11.468;2022-11-12T05:14:35;1.70;93.40
32640;DHT22;19049;52.524;11.468;2022-11-12T05:17:01;1.70;93.40
32640;DHT22;19049;52.524;11.468;2022-11-12T05:19:26;1.70;93.80
32640;DHT22;19049;52.524;11.468;2022-11-12T05:21:54;1.70;93.40
32640;DHT22;19049;52.524;11.468;2022-11-12T05:24:40;1.60;93.30
32640;DHT22;19049;52.524;11.468;2022-11-12T05:27:26;1.60;93.30
32640;DHT22;19049;52.524;11.468;2022-11-12T05:29:52;1.60;93.40
32640;DHT22;19049;52.524;11.468;2022-11-12T05:32:18;1.60;93.40
32640;DHT22;19049;52.524;11.468;2022-11-12T05:34:43;1.60;93.30
32640;DHT22;19049;52.524;11.468;2022-11-12T05:37:10;1.60;93.30
32640;DHT22;19049;52.524;11.468;2022-11-12T05:39:36;1.50;93.30
32640;DHT22;19049;52.524;11.468;2022-11-12T05:42:02;1.50;93.30
32640;DHT22;19049;52.524;11.468;2022-11-12T05:44:28;1.50;93.30
32640;DHT22;19049;52.524;11.468;2022-11-12T05:46:54;1.50;93.30
32640;DHT22;19049;52.524;11.468;2022-11-12T05:49:19;1.50;93.30
32640;DHT22;19049;52.524;11.468;2022-11-12T05:51:45;1.50;93.40
32640;DHT22;19049;52.524;11.468;2022-11-12T05:54:11;1.50;93.40
32640;DHT22;19049;52.524;11.468;2022-11-12T05:56:37;1.50;93.40
32640;DHT22;19049;52.524;11.468;2022-11-12T05:59:06;1.50;93.40
32640;DHT22;19049;52.524;11.468;2022-11-12T06:01:33;1.50;93.40
32640;DHT22;19049;52.524;11.468;2022-11-12T06:04:03;1.50;93.40
32640;DHT22;19049;52.524;11.468;2022-11-12T06:06:28;1.50;93.40
32640;DHT22;19049;52.524;11.468;2022-11-12T06:08:54;1.50;93.40
32640;DHT22;19049;52.524;11.468;2022-11-12T06:11:20;1.50;93.40
32640;DHT22;19049;52.524;11.468;2022-11-12T06:13:46;1.40;93.30
32640;DHT22;19049;52.524;11.468;2022-11-12T06:16:11;1.50;93.40
32640;DHT22;19049;52.524;11.468;2022-11-12T06:18:37;1.40;93.40
32640;DHT22;19049;52.524;11.468;2022-11-12T06:21:08;1.40;93.40
32640;DHT22;19049;52.524;11.468;2022-11-12T06:23:55;1.40;93.40
32640;DHT22;19049;52.524;11.468;2022-11-12T06:26:22;1.40;93.40
32640;DHT22;19049;52.524;11.468;2022-11-12T06:28:49;1.40;93.40
32640;DHT22;19049;52.524;11.468;2022-11-12T06:31:15;1.40;93.40
32640;DHT22;19049;52.524;11.468;2022-11-12T06:33:44;1.40;93.40
32640;DHT22;19049;52.524;11.468;2022-11-12T06:36:12;1.40;93.40
32640;DHT22;19049;52.524;11.468;2022-11-12T06:38:39;1.40;93.40
32640;DHT22;19049;52.524;11.468;2022-11-12T06:41:06;1.40;93.50
32640;DHT22;19049;52.524;11.468;2022-11-12T06:43:33;1.40;93.50
32640;DHT22;19049;52.524;11.468;2022-11-12T06:46:04;1.40;93.50
32640;DHT22;19049;52.524;11.468;2022-11-12T06:48:30;1.40;93.50
32640;DHT22;19049;52.524;11.468;2022-11-12T06:50:57;1.40;93.50
32640;DHT22;19049;52.524;11.468;2022-11-12T06:53:24;1.40;93.60
32640;DHT22;19049;52.524;11.468;2022-11-12T06:55:50;1.40;93.50
32640;DHT22;19049;52.524;11.468;2022-11-12T06:58:16;1.40;93.50
32640;DHT22;19049;52.524;11.468;2022-11-12T07:00:41;1.50;93.50
32640;DHT22;19049;52.524;11.468;2022-11-12T07:03:08;1.50;93.60
32640;DHT22;19049;52.524;11.468;2022-11-12T07:05:37;1.50;93.70
32640;DHT22;19049;52.524;11.468;2022-11-12T07:08:06;1.50;93.80
32640;DHT22;19049;52.524;11.468;2022-11-12T07:10:32;1.60;93.90
32640;DHT22;19049;52.524;11.468;2022-11-12T07:12:58;1.70;94.00
32640;DHT22;19049;52.524;11.468;2022-11-12T07:15:23;1.70;94.00
32640;DHT22;19049;52.524;11.468;2022-11-12T07:17:49;1.80;94.00
32640;DHT22;19049;52.524;11.468;2022-11-12T07:20:15;1.90;94.10
32640;DHT22;19049;52.524;11.468;2022-11-12T07:22:41;2.10;94.40
32640;DHT22;19049;52.524;11.468;2022-11-12T07:25:07;2.20;94.60
32640;DHT22;19049;52.524;11.468;2022-11-12T07:27:32;2.50;94.80
32640;DHT22;19049;52.524;11.468;2022-11-12T07:29:58;2.80;95.00
32640;DHT22;19049;52.524;11.468;2022-11-12T07:32:23;3.00;94.90
32640;DHT22;19049;52.524;11.468;2022-11-12T07:34:49;3.30;94.80
32640;DHT22;19049;52.524;11.468;2022-11-12T07:37:15;3.40;94.70
32640;DHT22;19049;52.524;11.468;2022-11-12T07:39:41;3.70;94.90
32640;DHT22;19049;52.524;11.468;2022-11-12T07:42:06;4.00;94.90
32640;DHT22;19049;52.524;11.468;2022-11-12T07:44:32;4.30;94.90
32640;DHT22;19049;52.524;11.468;2022-11-12T07:46:58;4.50;94.60
32640;DHT22;19049;52.524;11.468;2022-11-12T07:49:23;4.80;94.60
32640;DHT22;19049;52.524;11.468;2022-11-12T07:51:49;5.00;94.70
32640;DHT22;19049;52.524;11.468;2022-11-12T07:54:17;5.30;94.70
32640;DHT22;19049;52.524;11.468;2022-11-12T07:56:42;5.60;94.60
32640;DHT22;19049;52.524;11.468;2022-11-12T07:59:10;5.90;94.70
32640;DHT22;19049;52.524;11.468;2022-11-12T08:01:45;6.20;94.70
32640;DHT22;19049;52.524;11.468;2022-11-12T08:04:11;6.60;94.80
32640;DHT22;19049;52.524;11.468;2022-11-12T08:06:49;6.90;94.50
32640;DHT22;19049;52.524;11.468;2022-11-12T08:09:20;7.30;94.10
32640;DHT22;19049;52.524;11.468;2022-11-12T08:11:45;7.50;93.60
32640;DHT22;19049;52.524;11.468;2022-11-12T08:14:11;7.60;93.30
32640;DHT22;19049;52.524;11.468;2022-11-12T08:16:37;7.80;93.30
32640;DHT22;19049;52.524;11.468;2022-11-12T08:19:02;7.90;93.50
32640;DHT22;19049;52.524;11.468;2022-11-12T08:21:32;8.10;93.40
32640;DHT22;19049;52.524;11.468;2022-11-12T08:23:59;8.30;93.20
32640;DHT22;19049;52.524;11.468;2022-11-12T08:26:27;8.50;92.90
32640;DHT22;19049;52.524;11.468;2022-11-12T08:28:52;8.50;92.70
32640;DHT22;19049;52.524;11.468;2022-11-12T08:31:21;8.60;92.60
32640;DHT22;19049;52.524;11.468;2022-11-12T08:33:47;8.60;92.50
32640;DHT22;19049;52.524;11.468;2022-11-12T08:36:15;8.60;92.50
32640;DHT22;19049;52.524;11.468;2022-11-12T08:38:44;8.60;92.80
32640;DHT22;19049;52.524;11.468;2022-11-12T08:41:12;8.60;92.50
32640;DHT22;19049;52.524;11.468;2022-11-12T08:43:39;8.60;92.50
32640;DHT22;19049;52.524;11.468;2022-11-12T08:46:04;8.60;92.80
32640;DHT22;19049;52.524;11.468;2022-11-12T08:48:31;8.60;92.50
32640;DHT22;19049;52.524;11.468;2022-11-12T08:50:57;8.60;92.60
32640;DHT22;19049;52.524;11.468;2022-11-12T08:53:25;8.60;92.80
32640;DHT22;19049;52.524;11.468;2022-11-12T08:55:55;8.70;92.90
32640;DHT22;19049;52.524;11.468;2022-11-12T08:58:21;8.80;93.00
32640;DHT22;19049;52.524;11.468;2022-11-12T09:00:47;8.80;93.10
32640;DHT22;19049;52.524;11.468;2022-11-12T09:03:19;9.00;93.50
32640;DHT22;19049;52.524;11.468;2022-11-12T09:05:46;9.10;93.20
32640;DHT22;19049;52.524;11.468;2022-11-12T09:08:15;9.20;93.40
32640;DHT22;19049;52.524;11.468;2022-11-12T09:10:41;9.30;93.50
32640;DHT22;19049;52.524;11.468;2022-11-12T09:13:06;9.40;93.60
32640;DHT22;19049;52.524;11.468;2022-11-12T09:15:32;9.60;93.50
32640;DHT22;19049;52.524;11.468;2022-11-12T09:17:59;9.70;93.50
32640;DHT22;19049;52.524;11.468;2022-11-12T09:20:27;9.80;93.70
32640;DHT22;19049;52.524;11.468;2022-11-12T09:22:57;10.00;93.90
32640;DHT22;19049;52.524;11.468;2022-11-12T09:25:22;10.20;93.90
32640;DHT22;19049;52.524;11.468;2022-11-12T09:27:48;10.30;93.80
32640;DHT22;19049;52.524;11.468;2022-11-12T09:30:14;10.50;93.80
32640;DHT22;19049;52.524;11.468;2022-11-12T09:32:40;10.60;93.70
32640;DHT22;19049;52.524;11.468;2022-11-12T09:35:06;10.80;93.70
32640;DHT22;19049;52.524;11.468;2022-11-12T09:37:32;10.90;93.70
32640;DHT22;19049;52.524;11.468;2022-11-12T09:39:58;11.10;93.80
32640;DHT22;19049;52.524;11.468;2022-11-12T09:42:28;11.20;93.70
32640;DHT22;19049;52.524;11.468;2022-11-12T09:45:10;11.40;93.60
32640;DHT22;19049;52.524;11.468;2022-11-12T09:47:51;11.60;93.50
32640;DHT22;19049;52.524;11.468;2022-11-12T09:50:37;11.90;93.50
32640;DHT22;19049;52.524;11.468;2022-11-12T09:53:17;12.10;93.60
32640;DHT22;19049;52.524;11.468;2022-11-12T09:55:48;12.30;93.50
32640;DHT22;19049;52.524;11.468;2022-11-12T09:58:16;12.50;93.50
32640;DHT22;19049;52.524;11.468;2022-11-12T10:00:55;12.70;93.40
32640;DHT22;19049;52.524;11.468;2022-11-12T10:06:18;13.10;92.70
32640;DHT22;19049;52.524;11.468;2022-11-12T10:08:59;13.20;92.70
32640;DHT22;19049;52.524;11.468;2022-11-12T10:11:41;13.40;92.60
32640;DHT22;19049;52.524;11.468;2022-11-12T10:17:15;13.60;92.40
32640;DHT22;19049;52.524;11.468;2022-11-12T10:20:03;13.70;91.80
32640;DHT22;19049;52.524;11.468;2022-11-12T10:25:17;13.90;91.70
32640;DHT22;19049;52.524;11.468;2022-11-12T10:27:44;13.90;92.00
32640;DHT22;19049;52.524;11.468;2022-11-12T10:30:23;14.00;91.90
32640;DHT22;19049;52.524;11.468;2022-11-12T10:32:52;14.10;91.80
32640;DHT22;19049;52.524;11.468;2022-11-12T10:35:20;14.10;91.90
32640;DHT22;19049;52.524;11.468;2022-11-12T10:38:01;14.20;91.70
32640;DHT22;19049;52.524;11.468;2022-11-12T10:40:38;14.20;91.80
32640;DHT22;19049;52.524;11.468;2022-11-12T10:45:47;14.40;91.80
32640;DHT22;19049;52.524;11.468;2022-11-12T10:48:23;14.50;91.70
32640;DHT22;19049;52.524;11.468;2022-11-12T10:50:49;14.50;91.60
32640;DHT22;19049;52.524;11.468;2022-11-12T10:53:36;14.60;91.70
32640;DHT22;19049;52.524;11.468;2022-11-12T10:56:28;14.80;91.50
32640;DHT22;19049;52.524;11.468;2022-11-12T10:59:24;14.90;91.50
32640;DHT22;19049;52.524;11.468;2022-11-12T11:01:58;15.00;90.70
32640;DHT22;19049;52.524;11.468;2022-11-12T11:04:30;15.10;91.10
32640;DHT22;19049;52.524;11.468;2022-11-12T11:07:14;15.20;90.70
32640;DHT22;19049;52.524;11.468;2022-11-12T11:09:51;15.30;90.60
32640;DHT22;19049;52.524;11.468;2022-11-12T11:12:32;15.40;90.70
32640;DHT22;19049;52.524;11.468;2022-11-12T11:17:38;15.60;90.20
32640;DHT22;19049;52.524;11.468;2022-11-12T11:20:27;15.70;90.30
32640;DHT22;19049;52.524;11.468;2022-11-12T11:23:01;15.80;90.10
32640;DHT22;19049;52.524;11.468;2022-11-12T11:25:28;15.80;89.90
32640;DHT22;19049;52.524;11.468;2022-11-12T11:28:11;15.90;89.70
32640;DHT22;19049;52.524;11.468;2022-11-12T11:51:53;16.30;87.80
32640;DHT22;19049;52.524;11.468;2022-11-12T11:56:50;16.30;88.40
32640;DHT22;19049;52.524;11.468;2022-11-12T12:04:41;16.30;88.40
32640;DHT22;19049;52.524;11.468;2022-11-12T12:18:11;16.40;88.30
32640;DHT22;19049;52.524;11.468;2022-11-12T12:20:49;16.40;88.70
32640;DHT22;19049;52.524;11.468;2022-11-12T12:23:58;16.60;88.40
32640;DHT22;19049;52.524;11.468;2022-11-12T12:26:20;16.80;88.50
32640;DHT22;19049;52.524;11.468;2022-11-12T12:28:54;17.10;88.20
32640;DHT22;19049;52.524;11.468;2022-11-12T12:31:30;17.20;87.80
32640;DHT22;19049;52.524;11.468;2022-11-12T12:34:03;17.50;87.10
32640;DHT22;19049;52.524;11.468;2022-11-12T12:36:35;17.80;86.90
32640;DHT22;19049;52.524;11.468;2022-11-12T12:39:30;18.30;85.00
32640;DHT22;19049;52.524;11.468;2022-11-12T12:42:08;18.90;83.30
32640;DHT22;19049;52.524;11.468;2022-11-12T12:44:54;19.30;83.70
32640;DHT22;19049;52.524;11.468;2022-11-12T12:47:29;19.70;82.80
32640;DHT22;19049;52.524;11.468;2022-11-12T12:49:59;19.90;81.50
32640;DHT22;19049;52.524;11.468;2022-11-12T12:52:25;20.20;81.70
32640;DHT22;19049;52.524;11.468;2022-11-12T12:54:56;20.40;80.20
32640;DHT22;19049;52.524;11.468;2022-11-12T12:57:32;20.70;80.30
32640;DHT22;19049;52.524;11.468;2022-11-12T13:00:37;21.10;78.50
32640;DHT22;19049;52.524;11.468;2022-11-12T13:03:03;21.50;70.60
32640;DHT22;19049;52.524;11.468;2022-11-12T13:05:34;22.00;76.00
32640;DHT22;19049;52.524;11.468;2022-11-12T13:08:12;22.30;74.80
32640;DHT22;19049;52.524;11.468;2022-11-12T13:15:50;23.30;73.20
32640;DHT22;19049;52.524;11.468;2022-11-12T13:21:26;23.60;67.30
32640;DHT22;19049;52.524;11.468;2022-11-12T13:23:57;23.70;68.40
32640;DHT22;19049;52.524;11.468;2022-11-12T13:26:47;23.80;69.30
32640;DHT22;19049;52.524;11.468;2022-11-12T13:32:26;24.00;68.40
32640;DHT22;19049;52.524;11.468;2022-11-12T13:38:16;24.30;66.60
32640;DHT22;19049;52.524;11.468;2022-11-12T13:41:10;24.30;67.30
32640;DHT22;19049;52.524;11.468;2022-11-12T13:43:43;24.20;66.50
32640;DHT22;19049;52.524;11.468;2022-11-12T13:46:19;24.20;65.50
32640;DHT22;19049;52.524;11.468;2022-11-12T13:53:47;24.00;66.80
32640;DHT22;19049;52.524;11.468;2022-11-12T13:56:30;24.00;66.80
32640;DHT22;19049;52.524;11.468;2022-11-12T13:59:20;24.10;65.70
32640;DHT22;19049;52.524;11.468;2022-11-12T14:01:47;24.10;65.10
32640;DHT22;19049;52.524;11.468;2022-11-12T14:04:17;24.20;65.60
32640;DHT22;19049;52.524;11.468;2022-11-12T14:06:50;24.20;64.90
32640;DHT22;19049;52.524;11.468;2022-11-12T14:21:15;24.10;63.40
32640;DHT22;19049;52.524;11.468;2022-11-12T14:23:44;24.00;63.30
32640;DHT22;19049;52.524;11.468;2022-11-12T14:26:11;23.90;63.70
32640;DHT22;19049;52.524;11.468;2022-11-12T14:28:37;23.70;63.50
32640;DHT22;19049;52.524;11.468;2022-11-12T14:31:12;23.40;63.30
32640;DHT22;19049;52.524;11.468;2022-11-12T14:33:40;22.90;62.30
32640;DHT22;19049;52.524;11.468;2022-11-12T14:36:11;22.40;63.60
32640;DHT22;19049;52.524;11.468;2022-11-12T14:39:00;21.80;63.20
32640;DHT22;19049;52.524;11.468;2022-11-12T14:41:34;21.00;62.80
32640;DHT22;19049;52.524;11.468;2022-11-12T14:44:03;20.30;64.50
32640;DHT22;19049;52.524;11.468;2022-11-12T14:46:54;19.70;65.60
32640;DHT22;19049;52.524;11.468;2022-11-12T14:52:21;18.30;66.60
32640;DHT22;19049;52.524;11.468;2022-11-12T14:54:54;17.60;68.10
32640;DHT22;19049;52.524;11.468;2022-11-12T14:57:29;17.10;69.40
32640;DHT22;19049;52.524;11.468;2022-11-12T14:59:58;16.50;70.20
32640;DHT22;19049;52.524;11.468;2022-11-12T15:02:26;16.00;70.90
32640;DHT22;19049;52.524;11.468;2022-11-12T15:05:15;15.50;71.40
32640;DHT22;19049;52.524;11.468;2022-11-12T15:15:32;13.70;74.90
32640;DHT22;19049;52.524;11.468;2022-11-12T15:18:00;13.40;75.60
32640;DHT22;19049;52.524;11.468;2022-11-12T15:20:27;13.00;76.20
32640;DHT22;19049;52.524;11.468;2022-11-12T15:23:00;12.70;76.60
32640;DHT22;19049;52.524;11.468;2022-11-12T15:25:31;12.30;77.30
32640;DHT22;19049;52.524;11.468;2022-11-12T15:28:24;12.00;77.70
32640;DHT22;19049;52.524;11.468;2022-11-12T15:31:20;11.70;78.40
32640;DHT22;19049;52.524;11.468;2022-11-12T15:33:46;11.40;79.10
32640;DHT22;19049;52.524;11.468;2022-11-12T15:36:21;11.10;79.40
32640;DHT22;19049;52.524;11.468;2022-11-12T15:38:52;10.90;79.90
32640;DHT22;19049;52.524;11.468;2022-11-12T15:41:27;10.60;80.00
32640;DHT22;19049;52.524;11.468;2022-11-12T15:43:54;10.40;80.80
32640;DHT22;19049;52.524;11.468;2022-11-12T15:46:20;10.20;81.10
32640;DHT22;19049;52.524;11.468;2022-11-12T15:48:46;9.90;81.50
32640;DHT22;19049;52.524;11.468;2022-11-12T15:51:14;9.80;82.80
32640;DHT22;19049;52.524;11.468;2022-11-12T15:53:43;9.60;82.60
32640;DHT22;19049;52.524;11.468;2022-11-12T15:56:16;9.40;82.90
32640;DHT22;19049;52.524;11.468;2022-11-12T15:58:42;9.20;83.20
32640;DHT22;19049;52.524;11.468;2022-11-12T16:01:10;9.10;83.00
32640;DHT22;19049;52.524;11.468;2022-11-12T16:03:35;8.90;83.20
32640;DHT22;19049;52.524;11.468;2022-11-12T16:06:04;8.70;83.40
32640;DHT22;19049;52.524;11.468;2022-11-12T16:08:30;8.60;83.80
32640;DHT22;19049;52.524;11.468;2022-11-12T16:10:59;8.40;84.60
32640;DHT22;19049;52.524;11.468;2022-11-12T16:13:31;8.30;85.20
32640;DHT22;19049;52.524;11.468;2022-11-12T16:16:05;8.20;85.70
32640;DHT22;19049;52.524;11.468;2022-11-12T16:18:32;8.10;86.00
32640;DHT22;19049;52.524;11.468;2022-11-12T16:20:57;8.00;86.10
32640;DHT22;19049;52.524;11.468;2022-11-12T16:23:23;7.90;85.90
32640;DHT22;19049;52.524;11.468;2022-11-12T16:25:48;7.90;86.10
32640;DHT22;19049;52.524;11.468;2022-11-12T16:28:16;7.80;86.40
32640;DHT22;19049;52.524;11.468;2022-11-12T16:30:43;7.60;86.50
32640;DHT22;19049;52.524;11.468;2022-11-12T16:33:12;7.50;86.60
32640;DHT22;19049;52.524;11.468;2022-11-12T16:35:38;7.50;86.90
32640;DHT22;19049;52.524;11.468;2022-11-12T16:38:12;7.40;86.90
32640;DHT22;19049;52.524;11.468;2022-11-12T16:40:39;7.30;87.20
32640;DHT22;19049;52.524;11.468;2022-11-12T16:43:05;7.20;87.30
32640;DHT22;19049;52.524;11.468;2022-11-12T16:45:33;7.10;87.70
32640;DHT22;19049;52.524;11.468;2022-11-12T16:47:59;7.00;88.00
32640;DHT22;19049;52.524;11.468;2022-11-12T16:50:26;7.00;88.10
32640;DHT22;19049;52.524;11.468;2022-11-12T16:52:52;6.90;88.20
32640;DHT22;19049;52.524;11.468;2022-11-12T16:55:19;6.80;88.30
32640;DHT22;19049;52.524;11.468;2022-11-12T16:57:45;6.80;88.50
32640;DHT22;19049;52.524;11.468;2022-11-12T17:00:13;6.70;88.20
32640;DHT22;19049;52.524;11.468;2022-11-12T17:02:39;6.70;88.70
32640;DHT22;19049;52.524;11.468;2022-11-12T17:05:10;6.60;88.90
32640;DHT22;19049;52.524;11.468;2022-11-12T17:07:37;6.60;89.00
32640;DHT22;19049;52.524;11.468;2022-11-12T17:10:03;6.50;89.00
32640;DHT22;19049;52.524;11.468;2022-11-12T17:12:29;6.40;89.00
32640;DHT22;19049;52.524;11.468;2022-11-12T17:14:55;6.40;89.00
32640;DHT22;19049;52.524;11.468;2022-11-12T17:17:20;6.30;89.10
32640;DHT22;19049;52.524;11.468;2022-11-12T17:19:46;6.20;89.20
32640;DHT22;19049;52.524;11.468;2022-11-12T17:22:12;6.20;89.20
32640;DHT22;19049;52.524;11.468;2022-11-12T17:24:37;6.10;89.50
32640;DHT22;19049;52.524;11.468;2022-11-12T17:27:03;6.00;89.40